General Aviation Weather

Text Reports

Enter one or more of the following location identifiers separated by a space:

Zip Code, Four-Character ICAO or Three-Character IATA airport codes.

METAR - Aviation Routine Weather Report
KD55 - Langdon, North Dakota
Updated at 4:15 PM GMT on November 21, 2014 (10:15 AM CST):
METAR KD55 211615Z AUTO 22018G22KT 10SM CLR M04/M07 A2962 RMK AO2
TAF - Terminal Area Forecast
KD55 - Langdon, North Dakota
Updated at 4:15 PM GMT on November 21, 2014 (10:15 AM CST):
No TAF is currently available for this location.
Decoded:
No decoded TAF is available.
PIREP - Pilot Weather Report
KD55 - Langdon, North Dakota
Updated at 4:15 PM GMT on November 21, 2014 (10:15 AM CST):
No PIREP is currently available for this location.
AIRMET - Airmens Meteorological Information
KD55 - Langdon, North Dakota
Updated at 4:15 PM GMT on November 21, 2014 (10:15 AM CST):
No AIRMET is currently available for this location.
SIGMET - Significant Meteorological Information
KD55 - Langdon, North Dakota
Updated at 4:15 PM GMT on November 21, 2014 (10:15 AM CST):
No SIGMET is currently available for this location.
NOTAM - Notice to Airmen
KD55 - Langdon, North Dakota
Updated at 4:15 PM GMT on November 21, 2014 (10:15 AM CST):
No NOTAM is currently available for this location.
Forecast Area
KD55 - Langdon, North Dakota
Updated at 4:15 PM GMT on November 21, 2014 (10:15 AM CST):
No NOTAM is currently available for this location.
Aviation Weather Maps